createdAt,value
2022-12-20T00:09:57.731Z,3.77
2022-12-20T00:19:59.407Z,3.50
2022-12-20T00:30:00.907Z,3.60
2022-12-20T00:40:04.938Z,3.77
2022-12-20T00:50:11.644Z,3.72
2022-12-20T01:00:13.603Z,3.61
2022-12-20T01:10:15.706Z,3.46
2022-12-20T01:20:17.295Z,3.76
2022-12-20T01:30:18.911Z,3.60
2022-12-20T01:40:20.911Z,3.31
2022-12-20T01:50:24.085Z,3.28
2022-12-20T02:00:25.729Z,3.21
2022-12-20T02:10:44.754Z,3.17
2022-12-20T02:21:05.391Z,3.50
2022-12-20T02:31:13.218Z,3.51
2022-12-20T02:41:30.382Z,3.40
2022-12-20T02:51:33.358Z,3.61
2022-12-20T03:01:44.783Z,3.42
2022-12-20T03:11:46.446Z,3.64
2022-12-20T03:21:48.209Z,3.52
2022-12-20T03:31:49.859Z,3.64
2022-12-20T03:41:51.554Z,3.57
2022-12-20T03:51:53.709Z,3.57
2022-12-20T04:01:55.522Z,3.52
2022-12-20T04:11:57.259Z,3.48
2022-12-20T04:22:04.589Z,3.41
2022-12-20T04:32:20.461Z,3.44
2022-12-20T04:42:22.943Z,3.51
2022-12-20T04:52:47.963Z,3.46
2022-12-20T05:02:51.463Z,3.45
2022-12-20T05:12:55.311Z,3.47
2022-12-20T05:23:28.070Z,3.46
2022-12-20T05:33:38.505Z,3.49
2022-12-20T05:43:40.485Z,3.52
2022-12-20T05:53:42.518Z,3.53
2022-12-20T06:03:45.819Z,3.36
2022-12-20T06:13:50.747Z,3.45
2022-12-20T06:23:53.041Z,3.44
2022-12-20T06:33:55.694Z,3.55
2022-12-20T06:44:00.415Z,3.74
2022-12-20T06:54:02.319Z,3.68
2022-12-20T07:04:07.137Z,3.84
2022-12-20T07:14:08.680Z,3.87
2022-12-20T07:24:10.401Z,3.68
2022-12-20T07:34:11.947Z,3.73
2022-12-20T07:44:13.777Z,4.02
2022-12-20T07:54:26.781Z,3.99
2022-12-20T08:04:30.858Z,4.27
2022-12-20T08:14:32.323Z,4.49
2022-12-20T08:24:34.558Z,4.74
2022-12-20T08:34:36.269Z,4.72
2022-12-20T08:44:37.739Z,5.10
2022-12-20T08:54:39.216Z,5.25
2022-12-20T09:04:40.699Z,5.70
2022-12-20T09:14:42.447Z,5.82
2022-12-20T09:24:44.214Z,5.80
2022-12-20T09:34:47.321Z,6.03
2022-12-20T09:44:49.074Z,6.45
2022-12-20T09:55:06.549Z,6.84
2022-12-20T10:05:15.640Z,7.34
2022-12-20T10:15:28.953Z,8.36
2022-12-20T10:25:33.212Z,9.33
2022-12-20T10:35:40.793Z,9.11
2022-12-20T10:45:43.577Z,9.26
2022-12-20T10:55:45.196Z,8.92
2022-12-20T11:06:04.477Z,9.34
2022-12-20T11:16:06.415Z,9.73
2022-12-20T11:26:40.563Z,9.07
2022-12-20T11:37:03.996Z,8.73
2022-12-20T11:47:23.726Z,8.36
2022-12-20T11:57:48.355Z,8.71
2022-12-20T12:08:04.200Z,9.20
2022-12-20T12:18:17.768Z,8.83
2022-12-20T12:28:22.539Z,8.61
2022-12-20T12:38:33.208Z,8.66
2022-12-20T12:48:59.786Z,8.88
2022-12-20T12:59:07.356Z,8.53
2022-12-20T13:09:11.474Z,8.86
2022-12-20T13:19:35.928Z,8.89
2022-12-20T13:29:52.871Z,8.61
2022-12-20T13:39:55.576Z,8.13
2022-12-20T13:50:01.826Z,7.93
2022-12-20T14:00:07.623Z,7.83
2022-12-20T14:10:20.776Z,7.88
2022-12-20T14:20:35.106Z,7.66
2022-12-20T14:30:44.339Z,8.00
2022-12-20T14:40:53.623Z,7.60
2022-12-20T14:50:55.577Z,6.83
2022-12-20T15:01:14.853Z,7.08
2022-12-20T15:11:22.853Z,7.01
2022-12-20T15:21:32.976Z,6.93
2022-12-20T15:31:36.070Z,6.78
2022-12-20T15:41:39.936Z,6.76
2022-12-20T15:51:44.264Z,6.46
2022-12-20T16:01:46.027Z,6.51
2022-12-20T16:11:47.945Z,6.52
2022-12-20T16:21:52.298Z,6.52
2022-12-20T16:31:53.882Z,6.62
2022-12-20T16:41:55.385Z,6.57
2022-12-20T16:51:56.921Z,6.46
2022-12-20T17:01:58.571Z,6.45
2022-12-20T17:12:00.253Z,6.24
2022-12-20T17:32:25.642Z,6.20
2022-12-20T17:42:31.546Z,6.48
2022-12-20T17:52:33.335Z,6.34
2022-12-20T18:02:34.931Z,6.13
2022-12-20T18:12:37.734Z,6.06
2022-12-20T18:22:39.427Z,6.14
2022-12-20T18:32:41.230Z,6.11
2022-12-20T18:42:42.690Z,6.19
2022-12-20T18:52:46.072Z,6.26
2022-12-20T19:02:49.055Z,5.65
2022-12-20T19:12:50.656Z,5.87
2022-12-20T19:22:55.269Z,5.68
2022-12-20T19:32:56.752Z,5.98
2022-12-20T19:42:58.275Z,5.97
2022-12-20T19:52:59.848Z,5.81
2022-12-20T20:03:01.452Z,5.88
2022-12-20T20:13:04.026Z,5.94
2022-12-20T20:23:05.464Z,5.86
2022-12-20T20:33:08.333Z,5.79
2022-12-20T20:43:09.804Z,5.94
2022-12-20T20:53:12.025Z,5.87
2022-12-20T21:03:13.527Z,5.82
2022-12-20T21:13:15.694Z,5.94
2022-12-20T21:23:17.096Z,5.90
2022-12-20T21:33:18.544Z,5.85
2022-12-20T21:43:19.976Z,6.00
2022-12-20T21:53:21.433Z,5.89
2022-12-20T22:03:24.721Z,5.91
2022-12-20T22:13:27.116Z,5.92
2022-12-20T22:23:28.574Z,6.26
2022-12-20T22:33:29.986Z,5.92
2022-12-20T22:43:31.699Z,5.97
2022-12-20T22:53:34.048Z,6.34
2022-12-20T23:03:37.147Z,6.44
2022-12-20T23:13:58.359Z,6.44
2022-12-20T23:23:59.789Z,5.94
2022-12-20T23:34:01.991Z,5.91
2022-12-20T23:44:04.928Z,5.83
2022-12-20T23:54:06.359Z,6.05
